Terminal Aerodrome Forecast
Issued by NWS Jackson, MS

Home | Current Version | Previous Version | Text Only | Print | Product List | Glossary On
Versions: 1 2 3 4 5 6 7 8 9 10 11 12 13
000
FTUS44 KJAN 181700
TAFGLH
TAF
KGLH 181739Z 1818/1918 18006KT P6SM FEW040 SCT050
     FM181900 24006KT P6SM VCTS BKN050CB
     FM190000 14003KT P6SM FEW250
     FM191000 02003KT 3SM BR SKC=

USA.gov is the U.S. government's official web portal to all federal, state and local government web resources and services.